Terminal Aerodrome Forecast
Issued by NWS Sioux Falls, SD

Home | Current Version | Previous Version | Text Only | Print | Product List | Glossary Off
Versions: 1 2 3 4 5 6 7 8 9 10 11 12 13 14

000
FTUS43 KFSD 231534 AAA
TAFFSD
TAF AMD
KFSD 231534Z 2316/2412 15012KT P6SM BKN150
     FM231800 19011KT P6SM SCT045 SCT250
     FM240100 29012KT P6SM SCT200
     FM240300 32007KT P6SM SCT250=

USA.gov is the U.S. government's official web portal to all federal, state and local government web resources and services.